Weather observations for the past three days for
Visalia, Visalia Municipal Airport
Metric (Imperial)
Date Time (pdt) Wind (kph) Vis. (km) Weather Sky Cond. Temperature (ºC) Relative Humidity Wind Chill (°C) Heat Index (°C) Pressure Precipitation (cm)
Air Dwpt 6 hour altimeter (cm) sea level (mb) 1 hr 3 hr 6 hr
Max. Min.
05 12:56 NW 13 16.09 A Few Clouds FEW095 18.3 8.3 52% 76.2 1015.9
05 11:56 NW 19 16.09 Mostly Cloudy SCT090 BKN110 17.2 8.9 58% 76.23 1016.2
05 10:56 NW 19 16.09 NULL NULL 16.1 8.9 16.1 13.3 63% 76.2 1016.0
05 09:56 NW 19 16.09 Overcast BKN075 OVC100 15.6 8.9 65% 76.17 1015.7
05 08:56 NW 20 16.09 Light Rain FEW034 SCT046 OVC065 14.4 10.6 78% 0 0.0
05 07:56 NW 15 16.09 Overcast OVC049 13.3 10 81% 76.15 1015.0
05 06:56 NW 19 16.09 Overcast FEW049 SCT060 OVC095 13.3 10 81% 76.1 1014.4
05 05:56 NW 15 16.09 Overcast BKN065 OVC075 13.3 10 81% 76.05 1014.0
05 04:56 NW 15 16.09 Overcast OVC060 13.3 10 15 13.3 81% 76.05 1013.8
05 03:56 NW 13 16.09 Overcast FEW060 OVC110 13.3 10 81% 76.05 1013.8
05 02:56 NW 11 16.09 Overcast OVC080 13.9 10 78% 76.05 1013.9
05 01:56 NW 13 16.09 Overcast BKN060 OVC080 13.9 10 78% 76.07 1014.2
05 00:56 W 7 16.09 Mostly Cloudy FEW075 BKN090 13.9 10 78% 76.07 1014.3
04 23:56 NW 13 16.09 Overcast OVC080 15 10 72% 76.07 1014.2
04 22:56 W 7 16.09 Overcast OVC100 15.6 10 18.9 15.6 70% 76.07 1014.1
04 21:56 NW 11 16.09 Overcast BKN080 OVC100 15.6 8.9 65% 76.07 1014.0
04 20:56 NW 13 16.09 Overcast BKN055 OVC100 16.1 9.4 65% 76.07 1014.1
04 19:56 N 7 16.09 Overcast OVC100 16.7 8.3 58% 76.02 1013.6
04 18:56 NE 7 16.09 Partly Cloudy SCT095 SCT110 17.8 6.7 48% 76 1013.2
04 17:56 NE 11 16.09 Overcast OVC080 17.8 7.8 52% 76.05 1013.9
04 16:56 N 11 16.09 Overcast OVC080 17.8 7.8 18.3 15 52% 76.07 1014.1
04 15:56 NE 13 16.09 Overcast OVC070 17.8 7.8 52% 76.1 1014.6
04 14:56 N 11 16.09 Overcast OVC070 17.2 7.8 54% 76.15 1015.3
04 13:56 N 6 16.09 Overcast OVC060 16.7 7.8 56% 76.2 1015.9
04 12:56 NE 9 16.09 Overcast OVC060 16.1 7.8 58% 76.2 1016.0
04 11:56 N 7 16.09 Overcast OVC055 15.6 7.8 60% 76.23 1016.4
04 10:56 N 6 16.09 Overcast OVC049 15 7.8 15 13.9 62% 76.25 1016.5
04 09:56 NE 6 16.09 Overcast FEW035 OVC049 14.4 7.8 65% 76.2 1016.0
04 08:56 NE 11 16.09 Overcast FEW049 OVC060 14.4 8.3 67% 76.2 1015.7
04 07:56 N 15 16.09 Overcast FEW043 OVC050 14.4 7.2 62% 76.2 1015.6
04 06:56 N 9 16.09 Overcast OVC041 14.4 8.3 67% 76.15 1015.3
04 05:56 NW 9 16.09 Overcast OVC041 14.4 8.3 67% 76.12 1014.6
04 04:56 NW 19 16.09 Overcast OVC039 15 7.8 17.8 15 62% 76.1 1014.3
04 03:56 NW 15 16.09 Overcast OVC037 15 7.8 62% 76.1 1014.3
04 02:56 N 17 16.09 Overcast OVC037 15.6 7.8 60% 76.07 1013.9
04 01:56 NW 13 16.09 Overcast OVC039 16.1 7.8 58% 76.07 1014.0
04 00:56 NW 20 16.09 Overcast OVC035 16.7 7.2 54% 76.07 1014.3
03 23:56 W 7 16.09 Overcast OVC041 17.2 7.2 52% 76.07 1014.0
03 22:56 N 6 16.09 Overcast BKN050 BKN065 OVC110 17.8 8.3 25.6 17.8 54% 76.05 1013.6
03 21:56 NW 24 16.09 Overcast BKN070 OVC100 18.9 8.3 50% 75.97 1012.8
03 20:56 SW 13 16.09 Mostly Cloudy SCT080 BKN100 18.9 6.1 43% 75.9 1011.7
03 19:56 SW 22 16.09 Partly Cloudy SCT065 20.6 5.6 38% 75.79 1010.5
03 18:56 NW 6 16.09 Mostly Cloudy BKN070 23.3 10 43% 75.74 1009.7
03 17:56 NW 7 16.09 Overcast OVC065 25 10 39% 26 75.72 1009.5
03 16:56 Vrbl 7 16.09 A Few Clouds FEW060 25 9.4 25.6 20 37% 26 75.72 1009.4
03 15:56 Calm 16.09 Mostly Cloudy BKN055 23.3 9.4 41% 75.77 1010.0
03 14:56 Vrbl 7 16.09 A Few Clouds FEW050 23.9 10 42% 25 75.82 1010.6
03 13:56 NW 9 16.09 Overcast OVC046 21.7 10 47% 75.84 1011.1
03 12:56 N 9 16.09 Mostly Cloudy BKN042 21.1 10.6 51% 75.92 1011.8
03 11:56 Vrbl 7 16.09 Overcast OVC038 21.7 10.6 49% 75.97 1012.6
03 10:56 Vrbl 6 16.09 A Few Clouds FEW032 20 10.6 20 12.8 55% 75.97 1012.8
03 09:56 N 13 16.09 Fair CLR 18.3 11.1 63% 75.97 1012.6
03 08:56 NW 15 16.09 Mostly Cloudy BKN021 16.7 11.1 70% 75.95 1012.3
03 07:56 NW 11 16.09 Overcast OVC023 14.4 11.1 81% 75.92 1011.9
03 06:56 Calm 16.09 Fair CLR 12.8 11.1 90% 75.84 1011.1
03 05:56 Calm 16.09 Fair CLR 12.8 11.1 90% 75.77 1010.1
03 04:56 W 6 16.09 Fair CLR 13.9 11.7 20.6 13.9 87% 75.74 1009.7
03 03:56 NW 7 16.09 Fair CLR 15 11.7 81% 75.74 1009.5
03 02:56 W 11 16.09 Fair CLR 15.6 12.2 80% 75.72 1009.4
03 01:56 NW 15 16.09 Fair CLR 16.7 13.3 80% 75.72 1009.1
03 00:56 NW 13 16.09 Fair CLR 18.3 13.9 76% 75.69 1009.0
02 23:56 NW 13 16.09 Fair CLR 19.4 14.4 73% 75.69 1008.9
02 22:56 NW 17 16.09 Fair CLR 20.6 14.4 32.2 20.6 68% 75.69 1009.0
02 21:56 NW 19 16.09 Fair CLR 22.8 14.4 59% 75.67 1008.5
02 20:56 W 17 16.09 Fair CLR 24.4 13.9 52% 26 75.59 1007.7
02 19:56 W 11 16.09 Fair CLR 27.2 7.8 29% 27 75.57 1007.2
02 18:56 N 7 16.09 Fair CLR 29.4 9.4 29% 28 75.54 1006.9
02 17:56 N 11 16.09 Fair CLR 31.1 8.3 24% 29 75.54 1007.0
02 16:56 NW 13 16.09 Fair CLR 32.2 8.9 32.2 23.9 24% 30 75.57 1007.1
02 15:56 Calm 16.09 Fair CLR 31.7 9.4 25% 30 75.62 1007.9
02 14:56 Vrbl 7 16.09 Fair CLR 31.1 10 27% 30 75.72 1009.2
Date Time (pdt) Wind (kph) Vis. (km) Weather Sky Cond. Air Dwpt Max. Min. Relative Humidity Wind Chill (°C) Heat Index (°C) altimeter (cm) sea level (mb) 1 hr 3 hr 6 hr
6 hour
Temperature (ºC) Pressure Precipitation (cm)